createdAt,value
2018-08-04T00:00:54.140Z,0.00
2018-08-04T00:01:54.137Z,0.00
2018-08-04T00:02:54.116Z,0.00
2018-08-04T00:03:54.151Z,0.00
2018-08-04T00:04:54.089Z,0.00
2018-08-04T00:05:54.085Z,0.00
2018-08-04T00:06:54.077Z,0.00
2018-08-04T00:07:54.060Z,0.00
2018-08-04T00:08:54.053Z,0.00
2018-08-04T00:09:54.055Z,0.00
2018-08-04T00:10:54.026Z,0.00
2018-08-04T00:11:54.070Z,0.00
2018-08-04T00:12:54.008Z,0.00
2018-08-04T00:13:54.025Z,0.00
2018-08-04T00:14:53.984Z,0.00
2018-08-04T00:15:53.972Z,0.00
2018-08-04T00:16:53.957Z,0.00
2018-08-04T00:17:53.948Z,0.00
2018-08-04T00:18:53.938Z,0.00
2018-08-04T00:19:53.951Z,0.00
2018-08-04T00:20:53.920Z,0.00
2018-08-04T00:21:53.909Z,0.00
2018-08-04T00:22:53.899Z,0.00
2018-08-04T00:23:53.888Z,0.00
2018-08-04T00:24:53.897Z,0.00
2018-08-04T00:25:53.865Z,0.00
2018-08-04T00:26:53.853Z,0.00
2018-08-04T00:27:53.842Z,0.00
2018-08-04T00:28:53.826Z,0.00
2018-08-04T00:29:53.817Z,0.00
2018-08-04T00:30:53.835Z,0.00
2018-08-04T00:31:53.798Z,0.00
2018-08-04T00:32:53.806Z,0.00
2018-08-04T00:33:53.779Z,0.00
2018-08-04T00:34:53.765Z,0.00
2018-08-04T00:35:53.752Z,0.00
2018-08-04T00:36:53.765Z,0.00
2018-08-04T00:37:53.728Z,0.00
2018-08-04T00:38:53.720Z,0.00
2018-08-04T00:39:53.711Z,0.00
2018-08-04T00:40:53.705Z,0.00
2018-08-04T00:41:53.690Z,0.00
2018-08-04T00:42:53.737Z,0.00
2018-08-04T00:43:53.667Z,0.00
2018-08-04T00:44:53.669Z,0.00
2018-08-04T00:45:53.656Z,0.00
2018-08-04T00:46:53.635Z,0.00
2018-08-04T00:47:53.626Z,0.00
2018-08-04T00:48:53.637Z,0.00
2018-08-04T00:49:53.599Z,0.00
2018-08-04T00:50:53.586Z,0.00
2018-08-04T00:51:53.589Z,0.00
2018-08-04T00:52:53.569Z,0.00
2018-08-04T00:53:53.577Z,0.00
2018-08-04T00:54:53.576Z,0.00
2018-08-04T00:55:53.531Z,0.00
2018-08-04T00:56:53.526Z,0.00
2018-08-04T00:57:53.525Z,0.00
2018-08-04T00:58:53.510Z,0.00
2018-08-04T00:59:53.514Z,0.00
2018-08-04T01:00:53.479Z,0.00
2018-08-04T01:01:53.468Z,0.00
2018-08-04T01:02:53.455Z,0.00
2018-08-04T01:03:53.451Z,0.00
2018-08-04T01:04:53.442Z,0.00
2018-08-04T01:05:53.467Z,0.00
2018-08-04T01:06:53.433Z,0.00
2018-08-04T01:07:53.418Z,0.00
2018-08-04T01:08:53.393Z,0.00
2018-08-04T01:09:53.383Z,0.00
2018-08-04T01:10:53.389Z,0.00
2018-08-04T01:11:53.365Z,0.00
2018-08-04T01:12:53.356Z,0.00
2018-08-04T01:13:53.340Z,0.00
2018-08-04T01:14:53.342Z,0.00
2018-08-04T01:15:53.340Z,0.00
2018-08-04T01:16:53.309Z,0.00
2018-08-04T01:17:53.298Z,0.00
2018-08-04T01:18:53.299Z,0.00
2018-08-04T01:19:53.273Z,0.00
2018-08-04T01:20:53.282Z,0.00
2018-08-04T01:21:53.254Z,0.00
2018-08-04T01:22:53.240Z,0.00
2018-08-04T01:23:53.243Z,0.00
2018-08-04T01:24:53.223Z,0.00
2018-08-04T01:25:53.230Z,0.00
2018-08-04T01:26:53.207Z,0.00
2018-08-04T01:27:53.186Z,0.00
2018-08-04T01:28:53.178Z,0.00
2018-08-04T01:29:53.171Z,0.00
2018-08-04T01:30:53.182Z,0.00
2018-08-04T01:31:53.177Z,0.00
2018-08-04T01:32:53.139Z,0.00
2018-08-04T01:33:53.127Z,0.00
2018-08-04T01:34:53.112Z,0.00
2018-08-04T01:35:53.125Z,0.00
2018-08-04T01:36:53.095Z,0.00
2018-08-04T01:37:53.084Z,0.00
2018-08-04T01:38:53.076Z,0.00
2018-08-04T01:39:53.058Z,0.00
2018-08-04T01:40:53.068Z,0.00
2018-08-04T01:41:53.039Z,0.00
2018-08-04T01:42:53.033Z,0.00
2018-08-04T01:43:53.021Z,0.00
2018-08-04T01:44:53.009Z,0.00
2018-08-04T01:45:53.019Z,0.00
2018-08-04T01:46:52.987Z,0.00
2018-08-04T01:47:52.975Z,0.00
2018-08-04T01:48:52.966Z,0.00
2018-08-04T01:49:52.954Z,0.00
2018-08-04T01:50:52.976Z,0.00
2018-08-04T01:51:52.939Z,0.00
2018-08-04T01:52:52.926Z,0.00
2018-08-04T01:53:52.918Z,0.00
2018-08-04T01:54:52.901Z,0.00
2018-08-04T01:55:52.908Z,0.00
2018-08-04T01:56:52.875Z,0.00
2018-08-04T01:57:52.865Z,0.00
2018-08-04T01:58:52.857Z,0.00
2018-08-04T01:59:52.854Z,0.00
2018-08-04T02:00:52.859Z,0.00
2018-08-04T02:01:52.827Z,0.00
2018-08-04T02:02:52.814Z,0.00
2018-08-04T02:03:52.804Z,0.00
2018-08-04T02:04:52.794Z,0.00
2018-08-04T02:05:52.803Z,0.00
2018-08-04T02:06:52.777Z,0.00
2018-08-04T02:07:52.772Z,0.00
2018-08-04T02:08:52.759Z,0.00
2018-08-04T02:09:52.741Z,0.00
2018-08-04T02:10:52.757Z,0.00
2018-08-04T02:11:52.716Z,0.00
2018-08-04T02:12:52.708Z,0.00
2018-08-04T02:13:52.698Z,0.00
2018-08-04T02:14:52.683Z,0.00
2018-08-04T02:15:52.670Z,0.00
2018-08-04T02:16:52.676Z,0.00
2018-08-04T02:17:52.652Z,0.00
2018-08-04T02:18:52.639Z,0.00
2018-08-04T02:19:52.626Z,0.00
2018-08-04T02:20:52.612Z,0.00
2018-08-04T02:21:52.621Z,0.00
2018-08-04T02:22:52.595Z,0.00
2018-08-04T02:23:52.589Z,0.00
2018-08-04T02:24:52.576Z,0.00
2018-08-04T02:25:52.565Z,0.00
2018-08-04T02:26:52.597Z,0.00
2018-08-04T02:27:52.540Z,0.00
2018-08-04T02:28:52.528Z,0.00
2018-08-04T02:29:52.518Z,0.00
2018-08-04T02:30:52.513Z,0.00
2018-08-04T02:31:52.520Z,0.00
2018-08-04T02:32:52.490Z,0.00
2018-08-04T02:33:52.494Z,0.00
2018-08-04T02:34:52.467Z,0.00
2018-08-04T02:35:52.464Z,0.00
2018-08-04T02:36:52.468Z,0.00
2018-08-04T02:37:52.438Z,0.00
2018-08-04T02:38:52.425Z,0.00
2018-08-04T02:39:52.414Z,0.00
2018-08-04T02:40:52.399Z,0.00
2018-08-04T02:41:52.407Z,0.00
2018-08-04T02:42:52.379Z,0.00
2018-08-04T02:43:52.372Z,0.00
2018-08-04T02:44:52.363Z,0.00
2018-08-04T02:45:52.355Z,0.00
2018-08-04T02:46:52.359Z,0.00
2018-08-04T02:47:52.345Z,0.00
2018-08-04T02:48:52.313Z,0.00
2018-08-04T02:49:52.311Z,0.00
2018-08-04T02:50:52.303Z,0.00
2018-08-04T02:51:52.305Z,0.00
2018-08-04T02:52:52.274Z,0.00
2018-08-04T02:53:52.261Z,0.00
2018-08-04T02:54:52.250Z,0.00
2018-08-04T02:55:52.248Z,0.00
2018-08-04T02:56:52.303Z,0.00
2018-08-04T02:57:52.224Z,0.00
2018-08-04T02:58:52.209Z,0.00
2018-08-04T02:59:52.198Z,0.00
2018-08-04T03:00:52.185Z,0.00
2018-08-04T03:01:52.193Z,0.00
2018-08-04T03:02:52.165Z,0.00
2018-08-04T03:03:52.167Z,0.00
2018-08-04T03:04:52.148Z,0.00
2018-08-04T03:05:52.131Z,0.00
2018-08-04T03:06:52.141Z,0.00
2018-08-04T03:07:52.115Z,0.00
2018-08-04T03:08:52.110Z,0.00
2018-08-04T03:09:52.144Z,0.00
2018-08-04T03:10:52.084Z,0.00
2018-08-04T03:11:52.104Z,0.00
2018-08-04T03:12:52.056Z,0.00
2018-08-04T03:13:52.044Z,0.00
2018-08-04T03:14:52.037Z,0.00
2018-08-04T03:15:52.031Z,0.00
2018-08-04T03:16:52.039Z,0.00
2018-08-04T03:17:52.014Z,0.00
2018-08-04T03:18:51.996Z,0.00
2018-08-04T03:19:51.983Z,0.00
2018-08-04T03:20:51.978Z,0.00
2018-08-04T03:21:51.992Z,0.00
2018-08-04T03:22:51.955Z,0.00
2018-08-04T03:23:51.939Z,0.00
2018-08-04T03:24:51.929Z,0.00
2018-08-04T03:25:51.920Z,0.00
2018-08-04T03:26:51.908Z,0.00
2018-08-04T03:27:51.919Z,0.00
2018-08-04T03:28:51.898Z,0.00
2018-08-04T03:29:51.906Z,0.00
2018-08-04T03:30:51.867Z,0.00
2018-08-04T03:31:51.854Z,0.00
2018-08-04T03:32:51.866Z,0.00
2018-08-04T03:33:51.832Z,0.00
2018-08-04T03:34:51.827Z,0.00
2018-08-04T03:35:51.812Z,0.00
2018-08-04T03:36:51.806Z,0.00
2018-08-04T03:37:51.787Z,0.00
2018-08-04T03:38:51.797Z,0.00
2018-08-04T03:39:51.769Z,0.00
2018-08-04T03:40:51.762Z,0.00
2018-08-04T03:41:51.757Z,0.00
2018-08-04T03:42:51.737Z,0.00
2018-08-04T03:43:51.760Z,0.00
2018-08-04T03:44:51.719Z,0.00
2018-08-04T03:45:51.701Z,0.00
2018-08-04T03:46:51.689Z,0.00
2018-08-04T03:47:51.690Z,0.00
2018-08-04T03:48:51.703Z,5.62
2018-08-04T03:49:51.667Z,5.62
2018-08-04T03:50:51.650Z,5.62
2018-08-04T03:51:51.638Z,5.62
2018-08-04T03:52:51.630Z,5.62
2018-08-04T03:53:51.647Z,5.62
2018-08-04T03:54:51.610Z,5.62
2018-08-04T03:55:51.594Z,11.25
2018-08-04T03:56:51.584Z,11.25
2018-08-04T03:57:51.583Z,11.25
2018-08-04T03:58:51.561Z,11.25
2018-08-04T03:59:51.576Z,11.25
2018-08-04T04:00:51.544Z,16.88
2018-08-04T04:01:51.579Z,16.88
2018-08-04T04:02:51.520Z,16.88
2018-08-04T04:03:51.513Z,16.88
2018-08-04T04:04:51.521Z,22.50
2018-08-04T04:05:51.501Z,22.50
2018-08-04T04:06:51.476Z,22.50
2018-08-04T04:07:51.466Z,22.50
2018-08-04T04:08:51.466Z,28.12
2018-08-04T04:09:51.439Z,28.12
2018-08-04T04:10:51.451Z,28.12
2018-08-04T04:11:51.423Z,33.75
2018-08-04T04:12:51.417Z,33.75
2018-08-04T04:13:51.402Z,39.38
2018-08-04T04:14:51.393Z,39.38
2018-08-04T04:15:51.412Z,39.38
2018-08-04T04:16:51.369Z,45.00
2018-08-04T04:17:51.368Z,45.00
2018-08-04T04:18:51.345Z,50.62
2018-08-04T04:19:51.339Z,56.25
2018-08-04T04:20:51.327Z,56.25
2018-08-04T04:21:51.349Z,61.88
2018-08-04T04:22:51.306Z,67.50
2018-08-04T04:23:51.377Z,67.50
2018-08-04T04:24:51.281Z,67.50
2018-08-04T04:25:51.284Z,73.12
2018-08-04T04:26:51.298Z,78.75
2018-08-04T04:27:51.250Z,84.38
2018-08-04T04:28:51.233Z,84.38
2018-08-04T04:29:51.223Z,90.00
2018-08-04T04:30:51.219Z,95.62
2018-08-04T04:31:51.207Z,95.62
2018-08-04T04:32:51.243Z,101.25
2018-08-04T04:33:51.197Z,101.25
2018-08-04T04:34:51.193Z,101.25
2018-08-04T04:35:51.200Z,101.25
2018-08-04T04:36:51.174Z,106.88
2018-08-04T04:37:51.157Z,106.88
2018-08-04T04:38:51.129Z,106.88
2018-08-04T04:39:51.130Z,106.88
2018-08-04T04:40:51.115Z,106.88
2018-08-04T04:41:51.103Z,106.88
2018-08-04T04:42:51.115Z,106.88
2018-08-04T04:43:51.689Z,106.88
2018-08-04T04:44:51.070Z,101.25
2018-08-04T04:45:51.079Z,101.25
2018-08-04T04:46:51.046Z,95.62
2018-08-04T04:47:51.076Z,95.62
2018-08-04T04:48:51.022Z,95.62
2018-08-04T04:49:51.015Z,95.62
2018-08-04T04:50:51.002Z,95.62
2018-08-04T04:51:50.993Z,95.62
2018-08-04T04:52:50.990Z,101.25
2018-08-04T04:53:50.992Z,106.88
2018-08-04T04:54:50.974Z,112.50
2018-08-04T04:55:50.949Z,123.75
2018-08-04T04:56:50.936Z,129.38
2018-08-04T04:57:50.932Z,135.00
2018-08-04T04:58:50.945Z,140.62
2018-08-04T04:59:50.916Z,140.62
2018-08-04T05:00:50.894Z,140.62
2018-08-04T05:01:50.885Z,135.00
2018-08-04T05:02:50.876Z,135.00
2018-08-04T05:03:50.889Z,135.00
2018-08-04T05:04:50.868Z,135.00
2018-08-04T05:05:50.843Z,135.00
2018-08-04T05:06:50.842Z,140.62
2018-08-04T05:07:50.817Z,146.25
2018-08-04T05:08:50.827Z,157.50
2018-08-04T05:09:50.819Z,163.12
2018-08-04T05:10:50.783Z,168.75
2018-08-04T05:11:50.780Z,168.75
2018-08-04T05:12:50.771Z,174.38
2018-08-04T05:13:50.780Z,180.00
2018-08-04T05:14:50.740Z,180.00
2018-08-04T05:15:50.735Z,185.62
2018-08-04T05:16:50.722Z,191.25
2018-08-04T05:17:50.711Z,196.88
2018-08-04T05:18:50.705Z,208.12
2018-08-04T05:19:50.723Z,213.75
2018-08-04T05:20:50.707Z,219.38
2018-08-04T05:21:50.684Z,225.00
2018-08-04T05:22:50.662Z,225.00
2018-08-04T05:23:50.685Z,230.62
2018-08-04T05:24:50.664Z,225.00
2018-08-04T05:25:50.622Z,225.00
2018-08-04T05:26:50.618Z,219.38
2018-08-04T05:27:50.606Z,213.75
2018-08-04T05:28:50.587Z,208.12
2018-08-04T05:29:50.610Z,196.88
2018-08-04T05:30:50.570Z,191.25
2018-08-04T05:31:50.552Z,185.62
2018-08-04T05:32:50.544Z,185.62
2018-08-04T05:33:50.532Z,185.62
2018-08-04T05:34:50.520Z,191.25
2018-08-04T05:35:50.533Z,208.12
2018-08-04T05:36:50.501Z,225.00
2018-08-04T05:37:50.492Z,241.88
2018-08-04T05:38:50.483Z,258.75
2018-08-04T05:39:50.464Z,275.62
2018-08-04T05:40:50.491Z,286.88
2018-08-04T05:41:50.463Z,298.12
2018-08-04T05:42:50.432Z,298.12
2018-08-04T05:43:50.430Z,303.75
2018-08-04T05:44:50.416Z,315.00
2018-08-04T05:45:50.406Z,320.62
2018-08-04T05:46:51.073Z,320.62
2018-08-04T05:47:50.385Z,315.00
2018-08-04T05:48:50.372Z,315.00
2018-08-04T05:49:50.364Z,320.62
2018-08-04T05:50:50.371Z,326.25
2018-08-04T05:51:50.373Z,331.88
2018-08-04T05:52:50.334Z,337.50
2018-08-04T05:53:50.322Z,331.88
2018-08-04T05:54:50.313Z,326.25
2018-08-04T05:55:50.300Z,315.00
2018-08-04T05:56:50.287Z,303.75
2018-08-04T05:57:50.359Z,292.50
2018-08-04T05:58:50.273Z,286.88
2018-08-04T05:59:50.250Z,292.50
2018-08-04T06:00:50.245Z,298.12
2018-08-04T06:01:50.237Z,309.38
2018-08-04T06:02:50.249Z,326.25
2018-08-04T06:03:50.217Z,337.50
2018-08-04T06:04:50.203Z,348.75
2018-08-04T06:05:50.189Z,354.38
2018-08-04T06:06:50.176Z,360.00
2018-08-04T06:07:50.193Z,365.62
2018-08-04T06:08:50.182Z,354.38
2018-08-04T06:09:50.147Z,348.75
2018-08-04T06:10:50.139Z,348.75
2018-08-04T06:11:50.125Z,354.38
2018-08-04T06:12:50.139Z,360.00
2018-08-04T06:13:50.111Z,360.00
2018-08-04T06:14:50.096Z,365.62
2018-08-04T06:15:50.086Z,376.88
2018-08-04T06:16:50.075Z,382.50
2018-08-04T06:17:50.061Z,393.75
2018-08-04T06:18:50.074Z,399.38
2018-08-04T06:19:50.143Z,410.62
2018-08-04T06:20:50.100Z,421.88
2018-08-04T06:21:50.019Z,427.50
2018-08-04T06:22:50.014Z,438.75
2018-08-04T06:23:50.028Z,444.38
2018-08-04T06:24:50.008Z,450.00
2018-08-04T06:25:49.974Z,461.25
2018-08-04T06:26:49.962Z,466.88
2018-08-04T06:27:49.957Z,466.88
2018-08-04T06:28:49.945Z,472.50
2018-08-04T06:29:49.962Z,478.12
2018-08-04T06:30:49.924Z,472.50
2018-08-04T06:31:49.926Z,472.50
2018-08-04T06:32:49.909Z,466.88
2018-08-04T06:33:49.895Z,461.25
2018-08-04T06:34:49.907Z,466.88
2018-08-04T06:35:49.865Z,483.75
2018-08-04T06:36:49.858Z,489.38
2018-08-04T06:37:49.844Z,495.00
2018-08-04T06:38:49.839Z,489.38
2018-08-04T06:39:49.828Z,506.25
2018-08-04T06:40:49.834Z,517.50
2018-08-04T06:41:49.803Z,517.50
2018-08-04T06:42:49.801Z,523.12
2018-08-04T06:43:49.777Z,517.50
2018-08-04T06:44:49.783Z,523.12
2018-08-04T06:45:49.782Z,528.75
2018-08-04T06:46:49.749Z,523.12
2018-08-04T06:47:49.741Z,528.75
2018-08-04T06:48:49.729Z,523.12
2018-08-04T06:49:49.716Z,517.50
2018-08-04T06:50:49.721Z,511.88
2018-08-04T06:51:49.706Z,500.62
2018-08-04T06:52:49.737Z,500.62
2018-08-04T06:53:49.682Z,500.62
2018-08-04T06:54:49.668Z,511.88
2018-08-04T06:55:49.677Z,517.50
2018-08-04T06:56:49.649Z,528.75
2018-08-04T06:57:49.645Z,540.00
2018-08-04T06:58:49.619Z,540.00
2018-08-04T06:59:49.626Z,545.62
2018-08-04T07:00:49.623Z,551.25
2018-08-04T07:01:49.603Z,551.25
2018-08-04T07:02:49.592Z,556.88
2018-08-04T07:03:49.569Z,551.25
2018-08-04T07:04:49.561Z,540.00
2018-08-04T07:05:49.588Z,523.12
2018-08-04T07:06:49.553Z,511.88
2018-08-04T07:07:49.526Z,506.25
2018-08-04T07:08:49.529Z,500.62
2018-08-04T07:09:49.508Z,495.00
2018-08-04T07:10:49.523Z,483.75
2018-08-04T07:11:49.492Z,478.12
2018-08-04T07:12:49.480Z,489.38
2018-08-04T07:13:49.509Z,483.75
2018-08-04T07:14:49.460Z,489.38
2018-08-04T07:15:49.445Z,506.25
2018-08-04T07:16:49.465Z,517.50
2018-08-04T07:17:49.424Z,534.38
2018-08-04T07:18:49.414Z,545.62
2018-08-04T07:19:49.409Z,556.88
2018-08-04T07:20:49.397Z,568.12
2018-08-04T07:21:49.402Z,590.62
2018-08-04T07:22:49.374Z,607.50
2018-08-04T07:23:49.366Z,607.50
2018-08-04T07:24:49.354Z,607.50
2018-08-04T07:25:49.356Z,601.88
2018-08-04T07:26:49.372Z,613.12
2018-08-04T07:27:49.319Z,618.75
2018-08-04T07:28:49.316Z,635.62
2018-08-04T07:29:49.315Z,635.62
2018-08-04T07:30:49.289Z,646.88
2018-08-04T07:31:49.309Z,652.50
2018-08-04T07:32:49.275Z,652.50
2018-08-04T07:33:49.263Z,658.12
2018-08-04T07:34:49.362Z,663.75
2018-08-04T07:35:49.241Z,663.75
2018-08-04T07:36:49.253Z,658.12
2018-08-04T07:37:49.217Z,646.88
2018-08-04T07:38:49.209Z,624.38
2018-08-04T07:39:49.191Z,601.88
2018-08-04T07:40:49.196Z,590.62
2018-08-04T07:41:49.209Z,579.38
2018-08-04T07:42:49.179Z,562.50
2018-08-04T07:43:49.183Z,534.38
2018-08-04T07:44:49.201Z,517.50
2018-08-04T07:45:49.142Z,506.25
2018-08-04T07:46:49.172Z,466.88
2018-08-04T07:47:49.141Z,427.50
2018-08-04T07:48:49.101Z,399.38
2018-08-04T07:49:49.084Z,388.12
2018-08-04T07:50:49.071Z,371.25
2018-08-04T07:51:49.085Z,360.00
2018-08-04T07:52:49.054Z,360.00
2018-08-04T07:53:49.039Z,354.38
2018-08-04T07:54:49.044Z,360.00
2018-08-04T07:55:49.031Z,376.88
2018-08-04T07:56:49.028Z,399.38
2018-08-04T07:57:48.998Z,433.12
2018-08-04T07:58:48.992Z,450.00
2018-08-04T07:59:48.973Z,472.50
2018-08-04T08:00:48.965Z,495.00
2018-08-04T08:01:48.974Z,506.25
2018-08-04T08:02:48.945Z,528.75
2018-08-04T08:03:48.952Z,545.62
2018-08-04T08:04:48.927Z,545.62
2018-08-04T08:05:48.939Z,556.88
2018-08-04T08:06:48.946Z,590.62
2018-08-04T08:07:48.906Z,590.62
2018-08-04T08:08:48.897Z,590.62
2018-08-04T08:09:48.871Z,585.00
2018-08-04T08:10:48.960Z,568.12
2018-08-04T08:11:48.877Z,523.12
2018-08-04T08:12:48.838Z,517.50
2018-08-04T08:13:48.830Z,495.00
2018-08-04T08:14:48.812Z,472.50
2018-08-04T08:15:48.807Z,438.75
2018-08-04T08:16:48.815Z,410.62
2018-08-04T08:17:48.797Z,399.38
2018-08-04T08:18:48.794Z,393.75
2018-08-04T08:19:48.761Z,382.50
2018-08-04T08:20:48.756Z,382.50
2018-08-04T08:21:48.763Z,376.88
2018-08-04T08:22:48.724Z,382.50
2018-08-04T08:23:48.720Z,382.50
2018-08-04T08:24:48.709Z,371.25
2018-08-04T08:25:48.702Z,354.38
2018-08-04T08:26:48.681Z,320.62
2018-08-04T08:27:48.721Z,337.50
2018-08-04T08:28:48.733Z,360.00
2018-08-04T08:29:48.681Z,376.88
2018-08-04T08:30:48.750Z,365.62
2018-08-04T08:31:48.629Z,343.12
2018-08-04T08:32:48.640Z,354.38
2018-08-04T08:33:48.615Z,371.25
2018-08-04T08:34:48.598Z,371.25
2018-08-04T08:35:48.595Z,371.25
2018-08-04T08:36:48.585Z,371.25
2018-08-04T08:37:48.592Z,376.88
2018-08-04T08:38:48.562Z,376.88
2018-08-04T08:39:48.545Z,376.88
2018-08-04T08:40:48.537Z,376.88
2018-08-04T08:41:48.533Z,382.50
2018-08-04T08:42:48.561Z,382.50
2018-08-04T08:43:48.510Z,382.50
2018-08-04T08:44:48.496Z,382.50
2018-08-04T08:45:48.494Z,388.12
2018-08-04T08:46:48.502Z,388.12
2018-08-04T08:47:48.476Z,388.12
2018-08-04T08:48:48.460Z,388.12
2018-08-04T08:49:48.456Z,393.75
2018-08-04T08:50:49.235Z,393.75
2018-08-04T08:51:48.424Z,399.38
2018-08-04T08:52:48.438Z,410.62
2018-08-04T08:53:48.511Z,416.25
2018-08-04T08:54:48.407Z,438.75
2018-08-04T08:55:48.390Z,489.38
2018-08-04T08:56:48.387Z,613.12
2018-08-04T08:57:48.390Z,843.75
2018-08-04T08:58:48.351Z,1085.62
2018-08-04T08:59:48.348Z,1164.38
2018-08-04T09:00:48.348Z,1220.62
2018-08-04T09:01:48.325Z,1203.75
2018-08-04T09:02:48.356Z,821.25
2018-08-04T09:03:48.300Z,838.12
2018-08-04T09:04:48.293Z,753.75
2018-08-04T09:05:48.287Z,1125.00
2018-08-04T09:06:48.267Z,1316.25
2018-08-04T09:07:48.264Z,1321.88
2018-08-04T09:08:48.273Z,1321.88
2018-08-04T09:09:48.243Z,1316.25
2018-08-04T09:10:48.233Z,1321.88
2018-08-04T09:11:48.220Z,1321.88
2018-08-04T09:12:48.212Z,1316.25
2018-08-04T09:13:48.255Z,1108.12
2018-08-04T09:14:48.203Z,1006.88
2018-08-04T09:15:48.233Z,1243.12
2018-08-04T09:16:48.182Z,1305.00
2018-08-04T09:17:48.182Z,1288.12
2018-08-04T09:18:48.150Z,1085.62
2018-08-04T09:19:48.185Z,1091.25
2018-08-04T09:20:48.171Z,945.00
2018-08-04T09:21:48.129Z,984.38
2018-08-04T09:22:48.118Z,894.38
2018-08-04T09:23:48.100Z,1125.00
2018-08-04T09:24:48.129Z,1265.62
2018-08-04T09:25:48.102Z,1046.25
2018-08-04T09:26:48.073Z,630.00
2018-08-04T09:27:48.145Z,1243.12
2018-08-04T09:28:48.053Z,1265.62
2018-08-04T09:29:48.092Z,1260.00
2018-08-04T09:30:48.086Z,1215.00
2018-08-04T09:31:48.021Z,961.88
2018-08-04T09:32:48.015Z,658.12
2018-08-04T09:33:48.045Z,461.25
2018-08-04T09:34:48.009Z,382.50
2018-08-04T09:35:47.978Z,360.00
2018-08-04T09:36:47.983Z,354.38
2018-08-04T09:37:47.961Z,360.00
2018-08-04T09:38:47.951Z,348.75
2018-08-04T09:39:47.960Z,348.75
2018-08-04T09:40:47.947Z,348.75
2018-08-04T09:41:47.925Z,354.38
2018-08-04T09:42:47.913Z,354.38
2018-08-04T09:43:47.902Z,354.38
2018-08-04T09:44:47.909Z,354.38
2018-08-04T09:45:47.884Z,354.38
2018-08-04T09:46:47.873Z,354.38
2018-08-04T09:47:47.857Z,354.38
2018-08-04T09:48:47.850Z,354.38
2018-08-04T09:49:47.860Z,354.38
2018-08-04T09:50:47.828Z,348.75
2018-08-04T09:51:47.821Z,348.75
2018-08-04T09:52:47.812Z,348.75
2018-08-04T09:53:47.802Z,348.75
2018-08-04T09:54:47.813Z,348.75
2018-08-04T09:55:47.781Z,354.38
2018-08-04T09:56:47.760Z,354.38
2018-08-04T09:57:47.758Z,348.75
2018-08-04T09:58:47.742Z,348.75
2018-08-04T09:59:47.750Z,348.75
2018-08-04T10:00:47.755Z,354.38
2018-08-04T10:01:47.708Z,354.38
2018-08-04T10:02:47.700Z,354.38
2018-08-04T10:03:47.703Z,354.38
2018-08-04T10:04:47.706Z,348.75
2018-08-04T10:05:47.731Z,354.38
2018-08-04T10:06:47.673Z,354.38
2018-08-04T10:07:47.666Z,354.38
2018-08-04T10:08:47.649Z,354.38
2018-08-04T10:09:47.629Z,354.38
2018-08-04T10:10:47.636Z,354.38
2018-08-04T10:11:47.611Z,354.38
2018-08-04T10:12:47.604Z,354.38
2018-08-04T10:13:47.590Z,360.00
2018-08-04T10:14:47.584Z,360.00
2018-08-04T10:15:47.590Z,360.00
2018-08-04T10:16:47.553Z,365.62
2018-08-04T10:17:47.549Z,360.00
2018-08-04T10:18:47.535Z,360.00
2018-08-04T10:19:47.525Z,360.00
2018-08-04T10:20:47.546Z,360.00
2018-08-04T10:21:47.510Z,360.00
2018-08-04T10:22:47.492Z,360.00
2018-08-04T10:23:47.492Z,365.62
2018-08-04T10:24:47.476Z,371.25
2018-08-04T10:25:47.488Z,371.25
2018-08-04T10:26:47.452Z,371.25
2018-08-04T10:27:47.440Z,371.25
2018-08-04T10:28:47.468Z,376.88
2018-08-04T10:29:47.415Z,376.88
2018-08-04T10:30:47.426Z,376.88
2018-08-04T10:31:47.423Z,376.88
2018-08-04T10:32:47.438Z,382.50
2018-08-04T10:33:47.375Z,382.50
2018-08-04T10:34:47.368Z,382.50
2018-08-04T10:35:47.422Z,382.50
2018-08-04T10:36:47.379Z,388.12
2018-08-04T10:37:47.344Z,388.12
2018-08-04T10:38:47.342Z,393.75
2018-08-04T10:39:47.369Z,388.12
2018-08-04T10:40:47.321Z,388.12
2018-08-04T10:41:47.290Z,388.12
2018-08-04T10:42:47.293Z,388.12
2018-08-04T10:43:47.274Z,382.50
2018-08-04T10:44:47.266Z,382.50
2018-08-04T10:45:47.274Z,382.50
2018-08-04T10:46:47.247Z,382.50
2018-08-04T10:47:47.248Z,388.12
2018-08-04T10:48:47.217Z,393.75
2018-08-04T10:49:47.217Z,393.75
2018-08-04T10:50:47.233Z,399.38
2018-08-04T10:51:47.189Z,399.38
2018-08-04T10:52:47.176Z,399.38
2018-08-04T10:53:47.170Z,405.00
2018-08-04T10:54:47.157Z,405.00
2018-08-04T10:55:47.183Z,405.00
2018-08-04T10:56:47.141Z,405.00
2018-08-04T10:57:47.160Z,405.00
2018-08-04T10:58:47.313Z,399.38
2018-08-04T10:59:47.111Z,399.38
2018-08-04T11:00:47.124Z,405.00
2018-08-04T11:01:47.342Z,399.38
2018-08-04T11:02:47.092Z,399.38
2018-08-04T11:03:47.093Z,399.38
2018-08-04T11:04:47.059Z,399.38
2018-08-04T11:05:47.067Z,399.38
2018-08-04T11:06:47.035Z,405.00
2018-08-04T11:07:47.044Z,405.00
2018-08-04T11:08:47.026Z,410.62
2018-08-04T11:09:47.004Z,416.25
2018-08-04T11:10:46.999Z,421.88
2018-08-04T11:11:46.998Z,427.50
2018-08-04T11:12:46.967Z,433.12
2018-08-04T11:13:46.956Z,472.50
2018-08-04T11:14:46.949Z,703.12
2018-08-04T11:15:46.943Z,1248.75
2018-08-04T11:16:46.951Z,1867.50
2018-08-04T11:17:46.923Z,2306.25
2018-08-04T11:18:46.910Z,1755.00
2018-08-04T11:19:46.898Z,1845.00
2018-08-04T11:20:46.885Z,2846.25
2018-08-04T11:21:46.903Z,3493.12
2018-08-04T11:22:46.889Z,3408.75
2018-08-04T11:23:46.859Z,3549.38
2018-08-04T11:24:46.847Z,3774.38
2018-08-04T11:25:46.844Z,3673.12
2018-08-04T11:26:46.851Z,3386.25
2018-08-04T11:27:46.823Z,3279.38
2018-08-04T11:28:46.836Z,3448.12
2018-08-04T11:29:46.808Z,3678.75
2018-08-04T11:30:46.812Z,3712.50
2018-08-04T11:31:46.829Z,3611.25
2018-08-04T11:32:46.774Z,3751.88
2018-08-04T11:33:46.821Z,3864.38
2018-08-04T11:34:46.760Z,3965.62
2018-08-04T11:35:46.754Z,3735.00
2018-08-04T11:36:46.771Z,3633.75
2018-08-04T11:37:46.792Z,3695.62
2018-08-04T11:38:46.731Z,3397.50
2018-08-04T11:39:46.721Z,3279.38
2018-08-04T11:40:46.715Z,3684.38
2018-08-04T11:41:46.725Z,3633.75
2018-08-04T11:42:46.706Z,3735.00
2018-08-04T11:43:46.707Z,3858.75
2018-08-04T11:44:46.690Z,3948.75
2018-08-04T11:45:46.689Z,4021.88
2018-08-04T11:46:46.683Z,3965.62
2018-08-04T11:47:46.663Z,3864.38
2018-08-04T11:48:46.668Z,3650.62
2018-08-04T11:49:46.705Z,3645.00
2018-08-04T11:50:46.646Z,3802.50
2018-08-04T11:51:46.689Z,3740.62
2018-08-04T11:52:46.613Z,3352.50
2018-08-04T11:53:46.620Z,3403.12
2018-08-04T11:54:46.606Z,3189.38
2018-08-04T11:55:46.743Z,3628.12
2018-08-04T11:56:46.610Z,3988.12
2018-08-04T11:57:46.577Z,4263.75
2018-08-04T11:58:46.585Z,4089.38
2018-08-04T11:59:46.568Z,3633.75
2018-08-04T12:00:46.564Z,3566.25
2018-08-04T12:01:46.589Z,3605.62
2018-08-04T12:02:46.547Z,3397.50
2018-08-04T12:03:46.536Z,3639.38
2018-08-04T12:04:46.530Z,3605.62
2018-08-04T12:05:46.518Z,3577.50
2018-08-04T12:06:46.536Z,3391.88
2018-08-04T12:07:46.507Z,3307.50
2018-08-04T12:08:46.503Z,3448.12
2018-08-04T12:09:46.496Z,3386.25
2018-08-04T12:10:46.514Z,3600.00
2018-08-04T12:11:46.536Z,3864.38
2018-08-04T12:12:46.491Z,3774.38
2018-08-04T12:13:46.477Z,3768.75
2018-08-04T12:14:46.468Z,3346.88
2018-08-04T12:15:46.444Z,3301.88
2018-08-04T12:16:46.460Z,3920.62
2018-08-04T12:17:46.453Z,4078.12
2018-08-04T12:18:46.429Z,3560.62
2018-08-04T12:19:46.419Z,3307.50
2018-08-04T12:20:46.424Z,2851.88
2018-08-04T12:21:46.454Z,2621.25
2018-08-04T12:22:46.446Z,2925.00
2018-08-04T12:23:46.386Z,3470.62
2018-08-04T12:24:46.377Z,3380.62
2018-08-04T12:25:46.377Z,2891.25
2018-08-04T12:26:46.368Z,3172.50
2018-08-04T12:27:46.394Z,3729.38
2018-08-04T12:28:46.356Z,3706.88
2018-08-04T12:29:46.350Z,2930.62
2018-08-04T12:30:46.361Z,2925.00
2018-08-04T12:31:46.330Z,3262.50
2018-08-04T12:32:46.343Z,3448.12
2018-08-04T12:33:46.327Z,3262.50
2018-08-04T12:34:46.317Z,3616.88
2018-08-04T12:35:46.297Z,3622.50
2018-08-04T12:36:46.289Z,3718.12
2018-08-04T12:37:46.316Z,3740.62
2018-08-04T12:38:46.281Z,3909.38
2018-08-04T12:39:46.284Z,3971.25
2018-08-04T12:40:46.280Z,4021.88
2018-08-04T12:41:46.252Z,3993.75